Toyomasa Maru — JJ3927 — position and weather

sailwx.info

Track history (hours):
 
Tides and Currents Weather Stations Pressure Air Temp Water Temp Dewpoint Dewpoint Depression Visibility Wind Speed Wind Dir Waves Ship Positions

Toyomasa Maru

Last reported at 2017-Dec-11 17:00 UTC. Time now 2017-Dec-11 19:13 UTC.
Position N 35°29' E 139°55'.

Length 101 m; draft 4.4 m.

Type: Tanker. MMSI: 431300401.

Date/timePositionNaut miles runAvg speedWind from/ knotsBaromVisibWave heightAir tempDewpointWater temp
2017-Dec-11 17:00N 35°29' E 139°55'0 0.0
2017-Dec-11 16:30N 35°29' E 139°55'0 0.1
2017-Dec-11 15:59N 35°29' E 139°55'0 0.1
2017-Dec-11 15:29N 35°29' E 139°55'0 0.0
2017-Dec-11 14:54N 35°29' E 139°55'0 0.0
2017-Dec-11 14:30N 35°29' E 139°55'0 0.0
2017-Dec-11 14:00N 35°29' E 139°55'0 0.0
2017-Dec-11 13:30N 35°29' E 139°55'0 0.1
2017-Dec-11 13:00N 35°29' E 139°54'0 0.1
2017-Dec-11 12:30N 35°29' E 139°55'0 0.0
2017-Dec-11 12:01N 35°29' E 139°55'0 0.0
2017-Dec-11 11:30N 35°29' E 139°55'0 0.0
2017-Dec-11 11:00N 35°29' E 139°55'0 0.1
2017-Dec-11 10:30N 35°29' E 139°54'0 0.1
2017-Dec-11 10:00N 35°29' E 139°55'0 0.1
2017-Dec-11 09:30N 35°29' E 139°54'0 0.1
2017-Dec-11 09:00N 35°29' E 139°55'0 0.1
2017-Dec-11 08:29N 35°29' E 139°54'0 0.0
2017-Dec-11 08:00N 35°29' E 139°54'0 0.0
2017-Dec-11 07:30N 35°29' E 139°54'0 0.0
2017-Dec-11 07:00N 35°29' E 139°54'0 0.0
2017-Dec-11 06:30N 35°29' E 139°54'0 0.1
2017-Dec-11 06:00N 35°29' E 139°54'5 9.2
2017-Dec-11 05:30N 35°32' E 139°58'510.9
2017-Dec-11 05:00N 35°36' E 140°04'1 2.1
2017-Dec-11 04:30N 35°36' E 140°05'0 0.0
2017-Dec-11 04:00N 35°36' E 140°05'0 0.0
2017-Dec-11 03:30N 35°36' E 140°05'0 0.0
2017-Dec-11 03:00N 35°36' E 140°05'0 0.0
2017-Dec-11 02:30N 35°36' E 140°05'0 0.0
2017-Dec-11 02:00N 35°36' E 140°05'0 0.0
2017-Dec-11 01:30N 35°36' E 140°05'0 0.0
2017-Dec-11 01:00N 35°36' E 140°05'0 0.0
2017-Dec-11 00:30N 35°36' E 140°05'0 0.0
2017-Dec-11 00:00N 35°36' E 140°05'0 0.2
2017-Dec-10 23:31N 35°36' E 140°05'1 2.7
2017-Dec-10 23:01N 35°35' E 140°03'0 0.2
2017-Dec-10 22:31N 35°36' E 140°03'0 0.0
2017-Dec-10 22:00N 35°36' E 140°03'0 0.1
2017-Dec-10 21:31N 35°36' E 140°03'0 0.0
2017-Dec-10 21:00N 35°36' E 140°03'0 0.0
2017-Dec-10 20:30N 35°36' E 140°03'0 0.0
2017-Dec-10 20:01N 35°36' E 140°03'0 0.1
2017-Dec-10 19:31N 35°36' E 140°03'0 0.0
2017-Dec-10 19:00N 35°36' E 140°03'0 0.0
2017-Dec-10 18:30N 35°36' E 140°03'0 0.0
2017-Dec-10 18:01N 35°36' E 140°03'0 0.0
2017-Dec-10 17:30N 35°36' E 140°03'0 0.0
2017-Dec-10 17:00N 35°36' E 140°03'0 0.0
2017-Dec-10 16:31N 35°36' E 140°03'0 0.0
2017-Dec-10 16:00N 35°36' E 140°03'0 0.0
2017-Dec-10 15:31N 35°36' E 140°03'0 0.0
2017-Dec-10 15:00N 35°36' E 140°03'0 0.0
2017-Dec-10 14:31N 35°36' E 140°03'0 0.0
2017-Dec-10 14:01N 35°36' E 140°03'0 0.0
2017-Dec-10 13:31N 35°36' E 140°03'0 0.0
2017-Dec-10 13:00N 35°36' E 140°03'0 0.0
2017-Dec-10 12:30N 35°36' E 140°03'0 0.0
2017-Dec-10 11:59N 35°36' E 140°03'0 0.0
2017-Dec-10 11:30N 35°36' E 140°03'0 0.0
2017-Dec-10 11:00N 35°36' E 140°03'0 0.0
2017-Dec-10 10:28N 35°36' E 140°03'0 0.2
2017-Dec-10 10:00N 35°36' E 140°03'4 7.5
2017-Dec-10 09:30N 35°33' E 139°59'4 8.9
2017-Dec-10 09:00N 35°29' E 140°00'0 0.1
2017-Dec-10 04:04N 35°29' E 140°01'0 0.0
2017-Dec-10 02:54N 35°29' E 140°01'1 2.3
2017-Dec-10 02:30N 35°29' E 139°60'611.1
2017-Dec-10 02:00N 35°29' E 139°53'612.9
2017-Dec-10 01:31N 35°25' E 139°47'611.9
2017-Dec-10 01:01N 35°19' E 139°44'611.7
2017-Dec-10 00:31N 35°14' E 139°47'713.3
2017-Dec-10 00:00N 35°07' E 139°46'714.2
2017-Dec-09 23:30N 35°00' E 139°43'612.3
2017-Dec-09 23:00N 34°55' E 139°46'12 9.8
2017-Dec-09 21:47N 34°52' E 139°60'310.7
2017-Dec-09 21:30N 34°54' E 140°03'611.6
2017-Dec-09 20:58N 34°57' E 140°10'1111.1
2017-Dec-09 20:01N 35°02' E 140°21'110.8
2017-Dec-09 19:55N 35°03' E 140°22'  
2017-Dec-04 10:09N 35°30' E 139°58'0 0.0
2017-Dec-04 10:00N 35°30' E 139°58'0 0.0
2017-Dec-04 09:30N 35°30' E 139°58'0 0.0
2017-Dec-04 09:00N 35°30' E 139°58'0 0.0
2017-Dec-04 08:30N 35°30' E 139°58'0 0.0
2017-Dec-04 08:00N 35°30' E 139°58'0 0.0
2017-Dec-04 07:30N 35°30' E 139°58'1 1.4
2017-Dec-04 07:00N 35°30' E 139°59'611.3
2017-Dec-04 06:30N 35°35' E 140°03'2 3.9
2017-Dec-04 06:00N 35°36' E 140°05'0 0.0
2017-Dec-04 05:30N 35°36' E 140°05'0 0.0
2017-Dec-04 05:00N 35°36' E 140°05'0 0.0
2017-Dec-04 04:30N 35°36' E 140°05'0 0.0
2017-Dec-04 04:00N 35°36' E 140°05'0 0.0
2017-Dec-04 03:30N 35°36' E 140°05'0 0.0
2017-Dec-04 03:00N 35°36' E 140°05'0 0.0
2017-Dec-04 02:30N 35°36' E 140°05'0 0.0
2017-Dec-04 02:00N 35°36' E 140°05'0 0.0
2017-Dec-04 01:30N 35°36' E 140°05'0 0.2
2017-Dec-04 01:00N 35°36' E 140°05'4 8.1
2017-Dec-04 00:30N 35°34' E 140°00'612.0
2017-Dec-03 23:59N 35°30' E 139°54'612.0
2017-Dec-03 23:30N 35°26' E 139°49'611.4
2017-Dec-03 23:00N 35°21' E 139°45'510.2
2017-Dec-03 22:30N 35°16' E 139°46'611.3
2017-Dec-03 22:00N 35°11' E 139°46'612.6
2017-Dec-03 21:30N 35°05' E 139°43'612.9
2017-Dec-03 21:00N 35°00' E 139°38'713.4
2017-Dec-03 20:30N 34°56' E 139°31'1413.4
2017-Dec-03 19:27N 34°48' E 139°18'713.1
2017-Dec-03 18:57N 34°43' E 139°12'613.1
2017-Dec-03 18:29N 34°39' E 139°06'712.1
2017-Dec-03 17:52N 34°34' E 139°00'511.6
2017-Dec-03 17:28N 34°32' E 138°55'1713.0
2017-Dec-03 16:10N 34°32' E 138°34'1313.4
2017-Dec-03 15:09N 34°32' E 138°18'213.5
2017-Dec-03 15:00N 34°32' E 138°15'612.8
2017-Dec-03 14:30N 34°32' E 138°08'712.9
2017-Dec-03 13:59N 34°32' E 137°60'3613.0
2017-Dec-03 11:13N 34°32' E 137°16'413.2
2017-Dec-03 10:56N 34°32' E 137°12'1912.7
2017-Dec-03 09:28N 34°40' E 136°51'1012.8
2017-Dec-03 08:41N 34°48' E 136°45'212.3
2017-Dec-03 08:30N 34°50' E 136°44'611.7
2017-Dec-03 08:00N 34°56' E 136°41'2 4.5
2017-Dec-03 07:30N 34°57' E 136°38'0 0.1
2017-Dec-03 06:55N 34°57' E 136°38'0 0.1
2017-Dec-03 06:28N 34°57' E 136°38'0 0.0
2017-Dec-03 05:58N 34°57' E 136°38'0 0.0
2017-Dec-03 05:31N 34°57' E 136°38'0 0.1
2017-Dec-03 05:01N 34°57' E 136°38'0 0.1
2017-Dec-03 04:28N 34°57' E 136°38'0 0.1
2017-Dec-03 03:52N 34°57' E 136°38'0 0.0
2017-Dec-03 02:51N 34°57' E 136°38'0 0.1
2017-Dec-03 02:31N 34°57' E 136°38'0 0.0
2017-Dec-03 01:57N 34°57' E 136°38'0 0.1
2017-Dec-03 01:25N 34°57' E 136°38'0 0.1
2017-Dec-03 00:58N 34°57' E 136°38'0 0.0
2017-Dec-03 00:31N 34°57' E 136°38'0 0.0
2017-Dec-03 00:01N 34°57' E 136°38'0 0.0
2017-Dec-02 23:30N 34°57' E 136°38'3 5.4
2017-Dec-02 23:01N 34°57' E 136°42'0 0.3
2017-Dec-02 22:26N 34°57' E 136°42'0 0.0
2017-Dec-02 21:59N 34°57' E 136°42'0 0.0
2017-Dec-02 21:29N 34°57' E 136°42'0 0.1
2017-Dec-02 20:59N 34°57' E 136°42'4 8.0
2017-Dec-02 20:30N 34°53' E 136°43'713.1
2017-Dec-02 20:00N 34°48' E 136°47'713.1
2017-Dec-02 19:30N 34°42' E 136°51'1313.6
2017-Dec-02 18:35N 34°33' E 137°02'112.6
2017-Dec-02 18:31N 34°32' E 137°02'10910.1
2017-Dec-02 07:49N 33°52' E 135°00'412.6
2017-Dec-02 07:29N 33°56' E 134°59'713.3
2017-Dec-02 06:59N 34°03' E 134°59'713.4
2017-Dec-02 06:30N 34°09' E 134°59'714.3
2017-Dec-02 06:01N 34°16' E 134°59'713.4
2017-Dec-02 05:31N 34°22' E 135°02'713.8
2017-Dec-02 05:00N 34°25' E 135°10'4 7.9
2017-Dec-02 04:30N 34°25' E 135°14'0 0.1
2017-Dec-02 03:58N 34°25' E 135°14'0 0.0
2017-Dec-02 03:28N 34°25' E 135°14'0 0.0
2017-Dec-02 02:58N 34°25' E 135°14'0 0.0
2017-Dec-02 02:28N 34°25' E 135°14'0 0.0
2017-Dec-02 01:55N 34°25' E 135°14'0 0.0
2017-Dec-02 01:28N 34°25' E 135°14'0 0.0
2017-Dec-02 00:58N 34°25' E 135°14'0 0.0
2017-Dec-02 00:30N 34°25' E 135°14'0 0.4
2017-Dec-02 00:00N 34°25' E 135°14'2 4.5
2017-Dec-01 23:30N 34°23' E 135°12'0 0.4
2017-Dec-01 23:00N 34°23' E 135°13'0 0.0
2017-Dec-01 22:30N 34°23' E 135°13'0 0.0
2017-Dec-01 21:57N 34°23' E 135°13'0 0.0
2017-Dec-01 21:30N 34°23' E 135°13'0 0.0
2017-Dec-01 21:00N 34°23' E 135°13'0 0.0
2017-Dec-01 20:30N 34°23' E 135°13'0 0.1
2017-Dec-01 20:00N 34°23' E 135°12'0 0.1
2017-Dec-01 19:30N 34°23' E 135°13'0 0.1
2017-Dec-01 19:00N 34°23' E 135°12'4 7.5
2017-Dec-01 18:30N 34°26' E 135°09'612.2
2017-Dec-01 18:01N 34°32' E 135°06'713.9
2017-Dec-01 17:30N 34°37' E 135°01'713.6
2017-Dec-01 17:01N 34°35' E 134°53'  
Track history (hours):
 
Tides and Currents Weather Stations Pressure Air Temp Water Temp Dewpoint Dewpoint Depression Visibility Wind Speed Wind Dir Waves Ship Positions

Toyomasa Maru

Last reported at 2017-Dec-11 17:00 UTC. Time now 2017-Dec-11 19:13 UTC.
Position N 35°29' E 139°55'.

Length 101 m; draft 4.4 m.

Type: Tanker. MMSI: 431300401.

Date/timePositionNaut miles runAvg speedWind from/ knotsBaromVisibWave heightAir tempDewpointWater temp
2017-Dec-11 17:00N 35°29' E 139°55'0 0.0
2017-Dec-11 16:30N 35°29' E 139°55'0 0.1
2017-Dec-11 15:59N 35°29' E 139°55'0 0.1
2017-Dec-11 15:29N 35°29' E 139°55'0 0.0
2017-Dec-11 14:54N 35°29' E 139°55'0 0.0
2017-Dec-11 14:30N 35°29' E 139°55'0 0.0
2017-Dec-11 14:00N 35°29' E 139°55'0 0.0
2017-Dec-11 13:30N 35°29' E 139°55'0 0.1
2017-Dec-11 13:00N 35°29' E 139°54'0 0.1
2017-Dec-11 12:30N 35°29' E 139°55'0 0.0
2017-Dec-11 12:01N 35°29' E 139°55'0 0.0
2017-Dec-11 11:30N 35°29' E 139°55'0 0.0
2017-Dec-11 11:00N 35°29' E 139°55'0 0.1
2017-Dec-11 10:30N 35°29' E 139°54'0 0.1
2017-Dec-11 10:00N 35°29' E 139°55'0 0.1
2017-Dec-11 09:30N 35°29' E 139°54'0 0.1
2017-Dec-11 09:00N 35°29' E 139°55'0 0.1
2017-Dec-11 08:29N 35°29' E 139°54'0 0.0
2017-Dec-11 08:00N 35°29' E 139°54'0 0.0
2017-Dec-11 07:30N 35°29' E 139°54'0 0.0
2017-Dec-11 07:00N 35°29' E 139°54'0 0.0
2017-Dec-11 06:30N 35°29' E 139°54'0 0.1
2017-Dec-11 06:00N 35°29' E 139°54'5 9.2
2017-Dec-11 05:30N 35°32' E 139°58'510.9
2017-Dec-11 05:00N 35°36' E 140°04'1 2.1
2017-Dec-11 04:30N 35°36' E 140°05'0 0.0
2017-Dec-11 04:00N 35°36' E 140°05'0 0.0
2017-Dec-11 03:30N 35°36' E 140°05'0 0.0
2017-Dec-11 03:00N 35°36' E 140°05'0 0.0
2017-Dec-11 02:30N 35°36' E 140°05'0 0.0
2017-Dec-11 02:00N 35°36' E 140°05'0 0.0
2017-Dec-11 01:30N 35°36' E 140°05'0 0.0
2017-Dec-11 01:00N 35°36' E 140°05'0 0.0
2017-Dec-11 00:30N 35°36' E 140°05'0 0.0
2017-Dec-11 00:00N 35°36' E 140°05'0 0.2
2017-Dec-10 23:31N 35°36' E 140°05'1 2.7
2017-Dec-10 23:01N 35°35' E 140°03'0 0.2
2017-Dec-10 22:31N 35°36' E 140°03'0 0.0
2017-Dec-10 22:00N 35°36' E 140°03'0 0.1
2017-Dec-10 21:31N 35°36' E 140°03'0 0.0
2017-Dec-10 21:00N 35°36' E 140°03'0 0.0
2017-Dec-10 20:30N 35°36' E 140°03'0 0.0
2017-Dec-10 20:01N 35°36' E 140°03'0 0.1
2017-Dec-10 19:31N 35°36' E 140°03'0 0.0
2017-Dec-10 19:00N 35°36' E 140°03'0 0.0
2017-Dec-10 18:30N 35°36' E 140°03'0 0.0
2017-Dec-10 18:01N 35°36' E 140°03'0 0.0
2017-Dec-10 17:30N 35°36' E 140°03'0 0.0
2017-Dec-10 17:00N 35°36' E 140°03'0 0.0
2017-Dec-10 16:31N 35°36' E 140°03'0 0.0
2017-Dec-10 16:00N 35°36' E 140°03'0 0.0
2017-Dec-10 15:31N 35°36' E 140°03'0 0.0
2017-Dec-10 15:00N 35°36' E 140°03'0 0.0
2017-Dec-10 14:31N 35°36' E 140°03'0 0.0
2017-Dec-10 14:01N 35°36' E 140°03'0 0.0
2017-Dec-10 13:31N 35°36' E 140°03'0 0.0
2017-Dec-10 13:00N 35°36' E 140°03'0 0.0
2017-Dec-10 12:30N 35°36' E 140°03'0 0.0
2017-Dec-10 11:59N 35°36' E 140°03'0 0.0
2017-Dec-10 11:30N 35°36' E 140°03'0 0.0
2017-Dec-10 11:00N 35°36' E 140°03'0 0.0
2017-Dec-10 10:28N 35°36' E 140°03'0 0.2
2017-Dec-10 10:00N 35°36' E 140°03'4 7.5
2017-Dec-10 09:30N 35°33' E 139°59'4 8.9
2017-Dec-10 09:00N 35°29' E 140°00'0 0.1
2017-Dec-10 04:04N 35°29' E 140°01'0 0.0
2017-Dec-10 02:54N 35°29' E 140°01'1 2.3
2017-Dec-10 02:30N 35°29' E 139°60'611.1
2017-Dec-10 02:00N 35°29' E 139°53'612.9
2017-Dec-10 01:31N 35°25' E 139°47'611.9
2017-Dec-10 01:01N 35°19' E 139°44'611.7
2017-Dec-10 00:31N 35°14' E 139°47'713.3
2017-Dec-10 00:00N 35°07' E 139°46'714.2
2017-Dec-09 23:30N 35°00' E 139°43'612.3
2017-Dec-09 23:00N 34°55' E 139°46'12 9.8
2017-Dec-09 21:47N 34°52' E 139°60'310.7
2017-Dec-09 21:30N 34°54' E 140°03'611.6
2017-Dec-09 20:58N 34°57' E 140°10'1111.1
2017-Dec-09 20:01N 35°02' E 140°21'110.8
2017-Dec-09 19:55N 35°03' E 140°22'  
2017-Dec-04 10:09N 35°30' E 139°58'0 0.0
2017-Dec-04 10:00N 35°30' E 139°58'0 0.0
2017-Dec-04 09:30N 35°30' E 139°58'0 0.0
2017-Dec-04 09:00N 35°30' E 139°58'0 0.0
2017-Dec-04 08:30N 35°30' E 139°58'0 0.0
2017-Dec-04 08:00N 35°30' E 139°58'0 0.0
2017-Dec-04 07:30N 35°30' E 139°58'1 1.4
2017-Dec-04 07:00N 35°30' E 139°59'611.3
2017-Dec-04 06:30N 35°35' E 140°03'2 3.9
2017-Dec-04 06:00N 35°36' E 140°05'0 0.0
2017-Dec-04 05:30N 35°36' E 140°05'0 0.0
2017-Dec-04 05:00N 35°36' E 140°05'0 0.0
2017-Dec-04 04:30N 35°36' E 140°05'0 0.0
2017-Dec-04 04:00N 35°36' E 140°05'0 0.0
2017-Dec-04 03:30N 35°36' E 140°05'0 0.0
2017-Dec-04 03:00N 35°36' E 140°05'0 0.0
2017-Dec-04 02:30N 35°36' E 140°05'0 0.0
2017-Dec-04 02:00N 35°36' E 140°05'0 0.0
2017-Dec-04 01:30N 35°36' E 140°05'0 0.2
2017-Dec-04 01:00N 35°36' E 140°05'4 8.1
2017-Dec-04 00:30N 35°34' E 140°00'612.0
2017-Dec-03 23:59N 35°30' E 139°54'612.0
2017-Dec-03 23:30N 35°26' E 139°49'611.4
2017-Dec-03 23:00N 35°21' E 139°45'510.2
2017-Dec-03 22:30N 35°16' E 139°46'611.3
2017-Dec-03 22:00N 35°11' E 139°46'612.6
2017-Dec-03 21:30N 35°05' E 139°43'612.9
2017-Dec-03 21:00N 35°00' E 139°38'713.4
2017-Dec-03 20:30N 34°56' E 139°31'1413.4
2017-Dec-03 19:27N 34°48' E 139°18'713.1
2017-Dec-03 18:57N 34°43' E 139°12'613.1
2017-Dec-03 18:29N 34°39' E 139°06'712.1
2017-Dec-03 17:52N 34°34' E 139°00'511.6
2017-Dec-03 17:28N 34°32' E 138°55'1713.0
2017-Dec-03 16:10N 34°32' E 138°34'1313.4
2017-Dec-03 15:09N 34°32' E 138°18'213.5
2017-Dec-03 15:00N 34°32' E 138°15'612.8
2017-Dec-03 14:30N 34°32' E 138°08'712.9
2017-Dec-03 13:59N 34°32' E 137°60'3613.0
2017-Dec-03 11:13N 34°32' E 137°16'413.2
2017-Dec-03 10:56N 34°32' E 137°12'1912.7
2017-Dec-03 09:28N 34°40' E 136°51'1012.8
2017-Dec-03 08:41N 34°48' E 136°45'212.3
2017-Dec-03 08:30N 34°50' E 136°44'611.7
2017-Dec-03 08:00N 34°56' E 136°41'2 4.5
2017-Dec-03 07:30N 34°57' E 136°38'0 0.1
2017-Dec-03 06:55N 34°57' E 136°38'0 0.1
2017-Dec-03 06:28N 34°57' E 136°38'0 0.0
2017-Dec-03 05:58N 34°57' E 136°38'0 0.0
2017-Dec-03 05:31N 34°57' E 136°38'0 0.1
2017-Dec-03 05:01N 34°57' E 136°38'0 0.1
2017-Dec-03 04:28N 34°57' E 136°38'0 0.1
2017-Dec-03 03:52N 34°57' E 136°38'0 0.0
2017-Dec-03 02:51N 34°57' E 136°38'0 0.1
2017-Dec-03 02:31N 34°57' E 136°38'0 0.0
2017-Dec-03 01:57N 34°57' E 136°38'0 0.1
2017-Dec-03 01:25N 34°57' E 136°38'0 0.1
2017-Dec-03 00:58N 34°57' E 136°38'0 0.0
2017-Dec-03 00:31N 34°57' E 136°38'0 0.0
2017-Dec-03 00:01N 34°57' E 136°38'0 0.0
2017-Dec-02 23:30N 34°57' E 136°38'3 5.4
2017-Dec-02 23:01N 34°57' E 136°42'0 0.3
2017-Dec-02 22:26N 34°57' E 136°42'0 0.0
2017-Dec-02 21:59N 34°57' E 136°42'0 0.0
2017-Dec-02 21:29N 34°57' E 136°42'0 0.1
2017-Dec-02 20:59N 34°57' E 136°42'4 8.0
2017-Dec-02 20:30N 34°53' E 136°43'713.1
2017-Dec-02 20:00N 34°48' E 136°47'713.1
2017-Dec-02 19:30N 34°42' E 136°51'1313.6
2017-Dec-02 18:35N 34°33' E 137°02'112.6
2017-Dec-02 18:31N 34°32' E 137°02'10910.1
2017-Dec-02 07:49N 33°52' E 135°00'412.6
2017-Dec-02 07:29N 33°56' E 134°59'713.3
2017-Dec-02 06:59N 34°03' E 134°59'713.4
2017-Dec-02 06:30N 34°09' E 134°59'714.3
2017-Dec-02 06:01N 34°16' E 134°59'713.4
2017-Dec-02 05:31N 34°22' E 135°02'713.8
2017-Dec-02 05:00N 34°25' E 135°10'4 7.9
2017-Dec-02 04:30N 34°25' E 135°14'0 0.1
2017-Dec-02 03:58N 34°25' E 135°14'0 0.0
2017-Dec-02 03:28N 34°25' E 135°14'0 0.0
2017-Dec-02 02:58N 34°25' E 135°14'0 0.0
2017-Dec-02 02:28N 34°25' E 135°14'0 0.0
2017-Dec-02 01:55N 34°25' E 135°14'0 0.0
2017-Dec-02 01:28N 34°25' E 135°14'0 0.0
2017-Dec-02 00:58N 34°25' E 135°14'0 0.0
2017-Dec-02 00:30N 34°25' E 135°14'0 0.4
2017-Dec-02 00:00N 34°25' E 135°14'2 4.5
2017-Dec-01 23:30N 34°23' E 135°12'0 0.4
2017-Dec-01 23:00N 34°23' E 135°13'0 0.0
2017-Dec-01 22:30N 34°23' E 135°13'0 0.0
2017-Dec-01 21:57N 34°23' E 135°13'0 0.0
2017-Dec-01 21:30N 34°23' E 135°13'0 0.0
2017-Dec-01 21:00N 34°23' E 135°13'0 0.0
2017-Dec-01 20:30N 34°23' E 135°13'0 0.1
2017-Dec-01 20:00N 34°23' E 135°12'0 0.1
2017-Dec-01 19:30N 34°23' E 135°13'0 0.1
2017-Dec-01 19:00N 34°23' E 135°12'4 7.5
2017-Dec-01 18:30N 34°26' E 135°09'612.2
2017-Dec-01 18:01N 34°32' E 135°06'713.9
2017-Dec-01 17:30N 34°37' E 135°01'713.6
2017-Dec-01 17:01N 34°35' E 134°53'  

Dump ship's entire track history